createdAt,value
2023-09-07T00:07:16.183Z,987.3
2023-09-07T00:26:02.520Z,987.2
2023-09-07T00:44:49.124Z,987.1
2023-09-07T01:03:36.272Z,987
2023-09-07T01:22:22.049Z,986.9
2023-09-07T01:41:08.150Z,986.8
2023-09-07T01:59:52.799Z,986.8
2023-09-07T02:18:40.746Z,986.8
2023-09-07T02:37:26.462Z,986.7
2023-09-07T02:56:13.652Z,986.6
2023-09-07T03:14:57.680Z,986.6
2023-09-07T03:33:44.089Z,986.6
2023-09-07T03:52:31.588Z,986.5
2023-09-07T04:11:16.791Z,986.6
2023-09-07T04:30:00.783Z,986.6
2023-09-07T04:48:47.723Z,986.7
2023-09-07T05:07:33.984Z,986.7
2023-09-07T05:26:20.935Z,986.8
2023-09-07T05:45:08.167Z,986.9
2023-09-07T06:03:54.455Z,986.9
2023-09-07T06:22:40.415Z,987
2023-09-07T06:41:26.759Z,987
2023-09-07T07:00:12.588Z,987.2
2023-09-07T07:18:58.212Z,987.2
2023-09-07T07:37:44.185Z,987.2
2023-09-07T07:56:34.469Z,987.3
2023-09-07T08:15:20.377Z,987.3
2023-09-07T08:34:07.040Z,987.2
2023-09-07T08:52:53.471Z,987.2
2023-09-07T09:11:40.158Z,987.2
2023-09-07T09:30:26.851Z,987.1
2023-09-07T09:49:12.374Z,986.9
2023-09-07T10:07:59.354Z,986.8
2023-09-07T10:26:45.576Z,986.8
2023-09-07T10:45:32.104Z,986.7
2023-09-07T11:04:19.699Z,986.5
2023-09-07T11:23:07.539Z,986.2
2023-09-07T11:41:53.172Z,986.2
2023-09-07T12:00:36.067Z,986.3
2023-09-07T12:19:21.411Z,986.2
2023-09-07T12:38:08.096Z,986
2023-09-07T12:56:55.361Z,985.9
2023-09-07T13:15:43.434Z,985.8
2023-09-07T13:34:30.534Z,985.6
2023-09-07T13:53:17.957Z,985.4
2023-09-07T14:12:02.548Z,985.3
2023-09-07T14:30:50.054Z,985.3
2023-09-07T14:49:38.356Z,985.3
2023-09-07T15:08:20.788Z,985.3
2023-09-07T15:27:07.667Z,985.3
2023-09-07T15:45:54.948Z,985.1
2023-09-07T16:04:42.398Z,985.2
2023-09-07T16:23:28.705Z,985.2
2023-09-07T16:42:15.155Z,985.1
2023-09-07T17:01:00.761Z,984.9
2023-09-07T17:19:47.985Z,985
2023-09-07T17:38:33.766Z,985.2
2023-09-07T17:57:19.065Z,985.2
2023-09-07T18:16:05.848Z,985.2
2023-09-07T18:34:51.071Z,985.4
2023-09-07T18:53:36.585Z,985.4
2023-09-07T19:12:23.912Z,985.5
2023-09-07T19:31:10.226Z,985.5
2023-09-07T19:49:56.549Z,985.6
2023-09-07T20:08:42.201Z,985.7
2023-09-07T20:27:28.826Z,985.9
2023-09-07T20:46:16.208Z,985.8
2023-09-07T21:05:01.696Z,985.8
2023-09-07T21:23:48.173Z,985.8
2023-09-07T21:42:34.783Z,985.7
2023-09-07T22:01:21.533Z,985.7
2023-09-07T22:20:08.422Z,985.6
2023-09-07T22:38:55.631Z,985.7
2023-09-07T22:57:38.634Z,985.6
2023-09-07T23:16:23.204Z,985.5
2023-09-07T23:35:10.544Z,985.5
2023-09-07T23:53:56.122Z,985.4
